Time;durP1;ratioP1;P1;durP2;ratioP2;P2;SDS_P1;SDS_P2;PMS_P1;PMS_P2;Temp;Humidity;BMP_temperature;BMP_pressure;BME280_temperature;BME280_humidity;BME280_pressure;Samples;Min_cycle;Max_cycle;Signal;HPM_P1;HPM_P2
2022/08/26 00:01:54;;;;;;;17.87;4.58;;;;;;;;;;1724767;83;21036;-60
2022/08/26 00:04:22;;;;;;;13.80;4.90;;;;;;;;;;1724610;83;21110;-60
2022/08/26 00:06:49;;;;;;;13.55;4.65;;;;;;;;;;1719977;82;21098;-60
2022/08/26 00:09:17;;;;;;;16.30;4.90;;;;;;;;;;1711089;84;21110;-60
2022/08/26 00:11:46;;;;;;;16.45;5.20;;;;;;;;;;1711278;84;21040;-60
2022/08/26 00:14:13;;;;;;;21.57;4.62;;;;;;;;;;1711069;83;21016;-59
2022/08/26 00:16:41;;;;;;;18.35;4.50;;;;;;;;;;1711306;83;21496;-60
2022/08/26 00:19:09;;;;;;;20.10;4.83;;;;;;;;;;1711503;83;21579;-60
2022/08/26 00:21:36;;;;;;;16.60;4.42;;;;;;;;;;1711443;84;21051;-60
2022/08/26 00:24:04;;;;;;;14.90;5.22;;;;;;;;;;1711406;83;21498;-60
2022/08/26 00:26:33;;;;;;;22.77;4.90;;;;;;;;;;1711020;82;21012;-60
2022/08/26 00:28:59;;;;;;;16.60;4.60;;;;;;;;;;1711089;82;21040;-60
2022/08/26 00:31:28;;;;;;;18.87;5.17;;;;;;;;;;1711251;83;21064;-60
2022/08/26 00:33:55;;;;;;;16.07;5.03;;;;;;;;;;1711108;84;21082;-60
2022/08/26 00:36:23;;;;;;;15.78;4.70;;;;;;;;;;1711404;83;21528;-59
2022/08/26 00:38:50;;;;;;;23.30;5.12;;;;;;;;;;1711093;82;21047;-60
2022/08/26 00:41:18;;;;;;;19.15;4.50;;;;;;;;;;1711297;82;21103;-60
2022/08/26 00:43:45;;;;;;;14.47;4.40;;;;;;;;;;1711197;82;21079;-60
2022/08/26 00:46:21;;;;;;;19.25;4.45;;;;;;;;;;1711055;82;21032;-59
2022/08/26 00:48:52;;;;;;;14.63;4.60;;;;;;;;;;1710787;84;21068;-60
2022/08/26 00:51:21;;;;;;;14.70;4.80;;;;;;;;;;1711049;83;21025;-61
2022/08/26 00:53:54;;;;;;;19.48;4.60;;;;;;;;;;1711326;83;21543;-60
2022/08/26 00:56:37;;;;;;;14.65;4.62;;;;;;;;;;1711441;83;21515;-60
2022/08/26 00:59:06;;;;;;;20.05;4.75;;;;;;;;;;1711337;83;21063;-60
2022/08/26 01:01:36;;;;;;;19.23;4.70;;;;;;;;;;1711146;84;21043;-60
2022/08/26 01:04:03;;;;;;;16.73;5.08;;;;;;;;;;1711133;84;21554;-60
2022/08/26 01:06:31;;;;;;;12.53;4.60;;;;;;;;;;1710899;82;21560;-60
2022/08/26 01:08:57;;;;;;;15.05;4.78;;;;;;;;;;1711090;83;21044;-60
2022/08/26 01:11:24;;;;;;;16.15;4.65;;;;;;;;;;1711276;83;21148;-60
2022/08/26 01:13:55;;;;;;;20.17;4.58;;;;;;;;;;1711029;82;21084;-61
2022/08/26 01:16:24;;;;;;;18.10;4.72;;;;;;;;;;1711280;84;21043;-60
2022/08/26 01:18:53;;;;;;;21.45;4.67;;;;;;;;;;1711242;84;21015;-60
2022/08/26 01:21:32;;;;;;;15.98;4.53;;;;;;;;;;1711353;84;21334;-60
2022/08/26 01:23:59;;;;;;;14.78;4.30;;;;;;;;;;1710857;84;21071;-60
2022/08/26 01:26:35;;;;;;;19.80;4.75;;;;;;;;;;1691094;84;21488;-60
2022/08/26 01:29:04;;;;;;;18.85;4.42;;;;;;;;;;1691162;84;21012;-61
2022/08/26 01:31:40;;;;;;;11.45;4.45;;;;;;;;;;1711165;84;21106;-60
2022/08/26 01:34:11;;;;;;;15.43;4.67;;;;;;;;;;1711169;84;21563;-60
2022/08/26 01:36:38;;;;;;;16.85;4.25;;;;;;;;;;1711066;83;21045;-60
2022/08/26 01:39:06;;;;;;;20.25;4.10;;;;;;;;;;1711250;83;21060;-60
2022/08/26 01:41:34;;;;;;;19.75;4.85;;;;;;;;;;1711220;83;21048;-60
2022/08/26 01:44:03;;;;;;;14.13;4.62;;;;;;;;;;1710949;84;21119;-60
2022/08/26 01:46:31;;;;;;;23.18;5.00;;;;;;;;;;1711286;84;21003;-60
2022/08/26 01:49:01;;;;;;;14.35;4.55;;;;;;;;;;1710921;83;21520;-60
2022/08/26 01:51:28;;;;;;;18.77;4.95;;;;;;;;;;1711281;84;21155;-60
2022/08/26 01:53:55;;;;;;;18.80;4.75;;;;;;;;;;1691059;84;21556;-60
2022/08/26 01:56:22;;;;;;;16.93;4.70;;;;;;;;;;1711220;84;21012;-60
2022/08/26 01:58:52;;;;;;;17.95;4.67;;;;;;;;;;1711020;83;21024;-60
2022/08/26 02:01:19;;;;;;;16.55;4.85;;;;;;;;;;1711144;82;21008;-60
2022/08/26 02:03:58;;;;;;;15.13;4.30;;;;;;;;;;1711010;83;21060;-60
2022/08/26 02:06:26;;;;;;;15.35;4.47;;;;;;;;;;1711261;83;21079;-60
2022/08/26 02:08:55;;;;;;;17.62;5.10;;;;;;;;;;1710899;82;21108;-60
2022/08/26 02:11:22;;;;;;;14.18;4.50;;;;;;;;;;1711291;83;21012;-60
2022/08/26 02:13:51;;;;;;;15.65;4.75;;;;;;;;;;1710931;83;21005;-61
2022/08/26 02:16:21;;;;;;;22.22;5.12;;;;;;;;;;1711037;84;21055;-61
2022/08/26 02:18:48;;;;;;;13.83;4.58;;;;;;;;;;1711333;83;21583;-60
2022/08/26 02:21:16;;;;;;;13.13;4.25;;;;;;;;;;1711213;83;21071;-60
2022/08/26 02:23:43;;;;;;;15.95;4.53;;;;;;;;;;1711030;83;21028;-60
2022/08/26 02:26:17;;;;;;;15.35;4.33;;;;;;;;;;1711190;84;21492;-60
2022/08/26 02:28:59;;;;;;;17.32;4.15;;;;;;;;;;1711436;83;21068;-60
2022/08/26 02:31:26;;;;;;;12.88;4.58;;;;;;;;;;1711003;84;21499;-60
2022/08/26 02:33:53;;;;;;;12.40;4.15;;;;;;;;;;1711191;83;21032;-60
2022/08/26 02:36:24;;;;;;;21.93;4.53;;;;;;;;;;1711082;82;21550;-60
2022/08/26 02:38:51;;;;;;;13.68;4.10;;;;;;;;;;1711262;84;20980;-60
2022/08/26 02:41:19;;;;;;;12.82;4.20;;;;;;;;;;1711030;83;21031;-61
2022/08/26 02:43:46;;;;;;;18.62;4.20;;;;;;;;;;1711239;82;21067;-60
2022/08/26 02:46:13;;;;;;;17.25;4.50;;;;;;;;;;1711148;82;21086;-61
2022/08/26 02:48:40;;;;;;;11.08;3.80;;;;;;;;;;1711009;83;21032;-60
2022/08/26 02:51:07;;;;;;;18.05;4.28;;;;;;;;;;1711182;83;21102;-61
2022/08/26 02:53:34;;;;;;;13.15;4.15;;;;;;;;;;1711169;83;21532;-59
2022/08/26 02:56:01;;;;;;;16.25;3.92;;;;;;;;;;1711098;83;21009;-59
2022/08/26 02:58:28;;;;;;;16.32;4.33;;;;;;;;;;1711202;84;21051;-59
2022/08/26 03:00:55;;;;;;;17.57;4.95;;;;;;;;;;1710889;83;21543;-59
2022/08/26 03:03:24;;;;;;;19.05;4.72;;;;;;;;;;1711154;83;21040;-59
2022/08/26 03:05:52;;;;;;;15.80;4.85;;;;;;;;;;1710929;84;21536;-60
2022/08/26 03:08:19;;;;;;;18.17;5.35;;;;;;;;;;1718620;83;21031;-59
2022/08/26 03:10:46;;;;;;;13.65;5.33;;;;;;;;;;1724923;83;21504;-59
2022/08/26 03:13:14;;;;;;;19.57;5.83;;;;;;;;;;1724465;83;21023;-59
2022/08/26 03:15:41;;;;;;;17.27;5.90;;;;;;;;;;1724662;83;20998;-59
2022/08/26 03:18:09;;;;;;;17.85;6.80;;;;;;;;;;1724521;83;21072;-60
2022/08/26 03:20:37;;;;;;;22.07;6.65;;;;;;;;;;1724760;83;21047;-59
2022/08/26 03:23:04;;;;;;;18.45;6.70;;;;;;;;;;1724613;83;21031;-59
2022/08/26 03:25:31;;;;;;;19.62;6.10;;;;;;;;;;1724514;83;21028;-60
2022/08/26 03:27:58;;;;;;;18.00;6.60;;;;;;;;;;1724721;83;21027;-59
2022/08/26 03:30:40;;;;;;;15.38;6.22;;;;;;;;;;1724544;83;21040;-59
2022/08/26 03:33:11;;;;;;;18.95;7.00;;;;;;;;;;1724774;83;21055;-59
2022/08/26 03:35:39;;;;;;;20.55;6.55;;;;;;;;;;1724537;83;21054;-59
2022/08/26 03:38:07;;;;;;;18.65;6.10;;;;;;;;;;1724884;83;21531;-60
2022/08/26 03:40:35;;;;;;;17.62;6.30;;;;;;;;;;1724460;83;21039;-60
2022/08/26 03:43:03;;;;;;;16.48;5.90;;;;;;;;;;1724781;83;20996;-59
2022/08/26 03:45:30;;;;;;;21.65;6.17;;;;;;;;;;1724442;82;21079;-60
2022/08/26 03:47:58;;;;;;;17.70;6.50;;;;;;;;;;1724738;83;21025;-59
2022/08/26 03:50:25;;;;;;;16.52;6.42;;;;;;;;;;1724754;82;21063;-59
2022/08/26 03:52:53;;;;;;;17.95;6.20;;;;;;;;;;1724494;83;21043;-59
2022/08/26 03:55:25;;;;;;;23.12;6.90;;;;;;;;;;1724655;83;21094;-59
2022/08/26 03:57:52;;;;;;;24.63;6.90;;;;;;;;;;1724749;83;21060;-59
2022/08/26 04:00:20;;;;;;;15.20;6.53;;;;;;;;;;1724507;82;21070;-59
2022/08/26 04:02:49;;;;;;;17.05;6.30;;;;;;;;;;1724865;83;21491;-59
2022/08/26 04:05:18;;;;;;;19.27;6.60;;;;;;;;;;1724520;83;21086;-60
2022/08/26 04:07:47;;;;;;;16.57;7.03;;;;;;;;;;1721354;83;21094;-59
2022/08/26 04:10:16;;;;;;;20.62;6.72;;;;;;;;;;1711001;84;21020;-59
2022/08/26 04:12:43;;;;;;;16.27;6.45;;;;;;;;;;1711375;84;20992;-60
2022/08/26 04:15:14;;;;;;;14.87;6.60;;;;;;;;;;1711452;83;21472;-59
2022/08/26 04:17:40;;;;;;;23.47;6.78;;;;;;;;;;1711265;83;21468;-59
2022/08/26 04:20:08;;;;;;;21.15;6.85;;;;;;;;;;1711243;84;21034;-59
2022/08/26 04:22:35;;;;;;;16.85;6.72;;;;;;;;;;1711269;84;21518;-60
2022/08/26 04:25:02;;;;;;;19.25;6.22;;;;;;;;;;1711113;83;21063;-59
2022/08/26 04:27:31;;;;;;;19.85;6.37;;;;;;;;;;1711288;84;21028;-59
2022/08/26 04:29:57;;;;;;;16.17;7.20;;;;;;;;;;1711315;84;21523;-59
2022/08/26 04:32:24;;;;;;;21.02;7.00;;;;;;;;;;1711522;83;21488;-59
2022/08/26 04:34:51;;;;;;;20.68;6.42;;;;;;;;;;1711071;83;21060;-59
2022/08/26 04:37:18;;;;;;;17.23;6.17;;;;;;;;;;1711095;84;21047;-59
2022/08/26 04:39:45;;;;;;;15.35;6.37;;;;;;;;;;1711301;83;21192;-60
2022/08/26 04:42:13;;;;;;;17.60;6.33;;;;;;;;;;1711096;83;21040;-59
2022/08/26 04:44:40;;;;;;;16.40;5.60;;;;;;;;;;1711305;83;20980;-59
2022/08/26 04:47:07;;;;;;;22.50;6.28;;;;;;;;;;1711131;82;21095;-59
2022/08/26 04:49:37;;;;;;;13.93;5.53;;;;;;;;;;1711324;83;21068;-60
2022/08/26 04:52:04;;;;;;;14.60;5.47;;;;;;;;;;1711106;84;21047;-59
2022/08/26 04:54:32;;;;;;;17.73;5.60;;;;;;;;;;1711087;82;21496;-60
2022/08/26 04:56:58;;;;;;;14.50;5.00;;;;;;;;;;1711314;83;21043;-59
2022/08/26 04:59:28;;;;;;;14.93;5.08;;;;;;;;;;1711264;83;21035;-60
2022/08/26 05:01:59;;;;;;;14.40;5.03;;;;;;;;;;1711294;84;21067;-59
2022/08/26 05:04:26;;;;;;;10.95;4.40;;;;;;;;;;1711218;83;21251;-59
2022/08/26 05:06:53;;;;;;;10.90;4.10;;;;;;;;;;1711322;84;21027;-59
2022/08/26 05:09:20;;;;;;;15.85;4.80;;;;;;;;;;1716892;83;21054;-59
2022/08/26 05:11:47;;;;;;;11.05;4.40;;;;;;;;;;1719029;83;21052;-60
2022/08/26 05:14:15;;;;;;;11.90;4.40;;;;;;;;;;1719077;83;21024;-59
2022/08/26 05:16:42;;;;;;;11.12;4.15;;;;;;;;;;1718981;83;21079;-59
2022/08/26 05:19:09;;;;;;;17.07;4.50;;;;;;;;;;1719399;83;21504;-59
2022/08/26 05:21:37;;;;;;;17.55;4.55;;;;;;;;;;1719275;83;21520;-60
2022/08/26 05:24:05;;;;;;;13.32;4.50;;;;;;;;;;1719071;83;21468;-60
2022/08/26 05:26:32;;;;;;;16.52;3.95;;;;;;;;;;1719111;83;21020;-61
2022/08/26 05:28:59;;;;;;;10.90;4.05;;;;;;;;;;1718899;82;21042;-60
2022/08/26 05:31:28;;;;;;;12.75;4.40;;;;;;;;;;1718924;83;21062;-60
2022/08/26 05:33:56;;;;;;;12.10;4.60;;;;;;;;;;1719084;83;21496;-60
2022/08/26 05:36:26;;;;;;;16.23;4.47;;;;;;;;;;1718888;83;21036;-60
2022/08/26 05:38:53;;;;;;;10.85;3.90;;;;;;;;;;1719201;83;21000;-60
2022/08/26 05:41:29;;;;;;;9.68;3.60;;;;;;;;;;1718756;83;21031;-60
2022/08/26 05:43:57;;;;;;;13.45;4.05;;;;;;;;;;1718862;83;21032;-60
2022/08/26 05:46:25;;;;;;;12.55;4.05;;;;;;;;;;1719082;83;20992;-60
2022/08/26 05:48:53;;;;;;;10.18;4.42;;;;;;;;;;1719189;83;21508;-61
2022/08/26 05:51:20;;;;;;;12.47;4.47;;;;;;;;;;1719134;83;21024;-61
2022/08/26 05:53:47;;;;;;;15.03;4.10;;;;;;;;;;1718859;83;21045;-60
2022/08/26 05:56:14;;;;;;;12.40;3.70;;;;;;;;;;1718997;83;20988;-61
2022/08/26 05:58:41;;;;;;;10.82;3.75;;;;;;;;;;1718930;83;21043;-61
2022/08/26 06:01:14;;;;;;;14.90;3.75;;;;;;;;;;1719124;83;21076;-61
2022/08/26 06:03:43;;;;;;;14.53;3.90;;;;;;;;;;1719131;83;21037;-60
2022/08/26 06:06:14;;;;;;;10.68;3.60;;;;;;;;;;1718923;83;21222;-60
2022/08/26 06:08:41;;;;;;;12.68;3.30;;;;;;;;;;1721097;82;21035;-61
2022/08/26 06:11:10;;;;;;;12.13;3.72;;;;;;;;;;1724575;83;21070;-61
2022/08/26 06:13:38;;;;;;;14.90;3.77;;;;;;;;;;1724576;82;21035;-61
2022/08/26 06:16:10;;;;;;;16.42;3.77;;;;;;;;;;1724791;82;21051;-61
2022/08/26 06:18:39;;;;;;;14.07;3.47;;;;;;;;;;1724732;83;21039;-61
2022/08/26 06:21:16;;;;;;;14.68;3.72;;;;;;;;;;1724481;83;21137;-60
2022/08/26 06:26:30;;;;;;;12.90;3.80;;;;;;;;;;1724572;83;21039;-60
2022/08/26 06:28:57;;;;;;;14.60;3.47;;;;;;;;;;1724769;83;21043;-59
2022/08/26 06:31:25;;;;;;;17.82;3.52;;;;;;;;;;1723651;83;21534;-62
2022/08/26 06:33:53;;;;;;;17.67;4.17;;;;;;;;;;1723536;83;21051;-60
2022/08/26 06:36:23;;;;;;;18.67;3.70;;;;;;;;;;1723668;82;21051;-60
2022/08/26 06:38:50;;;;;;;10.08;3.22;;;;;;;;;;1723698;83;21087;-60
2022/08/26 06:41:22;;;;;;;14.60;3.33;;;;;;;;;;1723790;82;21581;-60
2022/08/26 06:43:49;;;;;;;10.93;3.30;;;;;;;;;;1723532;83;21498;-60
2022/08/26 06:46:18;;;;;;;13.08;3.27;;;;;;;;;;1723646;83;21140;-60
2022/08/26 06:48:46;;;;;;;12.88;3.15;;;;;;;;;;1723934;83;21527;-60
2022/08/26 06:51:21;;;;;;;9.55;3.20;;;;;;;;;;1723667;83;21512;-61
2022/08/26 06:53:50;;;;;;;7.85;3.33;;;;;;;;;;1723816;83;21015;-60
2022/08/26 06:56:20;;;;;;;17.85;4.12;;;;;;;;;;1723622;82;21031;-62
2022/08/26 06:58:48;;;;;;;14.93;3.98;;;;;;;;;;1723769;83;21070;-60
2022/08/26 07:01:21;;;;;;;16.50;3.67;;;;;;;;;;1723537;83;21067;-61
2022/08/26 07:03:49;;;;;;;16.67;3.70;;;;;;;;;;1723524;83;21082;-60
2022/08/26 07:06:18;;;;;;;17.32;3.92;;;;;;;;;;1723735;83;21016;-60
2022/08/26 07:08:46;;;;;;;15.48;4.03;;;;;;;;;;1719878;83;21575;-60
2022/08/26 07:11:13;;;;;;;15.03;3.42;;;;;;;;;;1709967;82;21079;-61
2022/08/26 07:13:39;;;;;;;14.23;3.15;;;;;;;;;;1710116;83;21005;-60
2022/08/26 07:16:11;;;;;;;11.38;3.00;;;;;;;;;;1710090;83;21493;-61
2022/08/26 07:18:39;;;;;;;32.80;4.08;;;;;;;;;;1710448;82;21070;-61
2022/08/26 07:21:07;;;;;;;24.55;4.00;;;;;;;;;;1710212;83;21067;-60
2022/08/26 07:23:35;;;;;;;39.03;4.92;;;;;;;;;;1710079;83;20964;-61
2022/08/26 07:26:07;;;;;;;41.70;4.65;;;;;;;;;;1709905;84;21059;-61
2022/08/26 07:28:34;;;;;;;17.70;3.50;;;;;;;;;;1710259;84;21047;-61
2022/08/26 07:31:08;;;;;;;16.55;3.45;;;;;;;;;;1690341;84;21016;-60
2022/08/26 07:33:37;;;;;;;14.28;3.27;;;;;;;;;;1709654;82;21004;-61
2022/08/26 07:36:07;;;;;;;13.98;3.40;;;;;;;;;;1709697;82;21067;-60
2022/08/26 07:38:35;;;;;;;19.20;3.67;;;;;;;;;;1710098;82;21079;-60
2022/08/26 07:41:02;;;;;;;14.65;3.15;;;;;;;;;;1709743;82;21539;-62
2022/08/26 07:43:29;;;;;;;15.35;3.05;;;;;;;;;;1709387;82;21070;-61
2022/08/26 07:45:57;;;;;;;11.97;2.77;;;;;;;;;;1730082;82;21111;-62
2022/08/26 07:48:24;;;;;;;15.48;3.27;;;;;;;;;;1737795;82;21088;-60
2022/08/26 07:50:52;;;;;;;14.15;3.12;;;;;;;;;;1735194;82;21031;-62
2022/08/26 07:53:20;;;;;;;12.47;3.02;;;;;;;;;;1698998;84;21031;-63
2022/08/26 07:55:48;;;;;;;8.70;2.72;;;;;;;;;;1737099;82;21028;-61
2022/08/26 07:58:16;;;;;;;24.50;3.95;;;;;;;;;;1737859;82;22226;-62
2022/08/26 08:00:44;;;;;;;17.17;2.90;;;;;;;;;;1736981;82;21048;-62
2022/08/26 08:03:11;;;;;;;10.63;3.00;;;;;;;;;;1735355;82;21056;-61
2022/08/26 08:05:37;;;;;;;16.62;3.00;;;;;;;;;;1736639;82;21112;-61
2022/08/26 08:08:07;;;;;;;10.23;3.20;;;;;;;;;;1736671;82;21005;-62
2022/08/26 08:13:21;;;;;;;12.30;3.02;;;;;;;;;;1737927;82;21068;-62
2022/08/26 08:15:48;;;;;;;10.35;3.02;;;;;;;;;;1737001;82;22372;-61
2022/08/26 08:18:15;;;;;;;15.35;3.30;;;;;;;;;;1735852;82;21069;-62
2022/08/26 08:20:42;;;;;;;12.70;2.87;;;;;;;;;;1736705;82;21056;-61
2022/08/26 08:23:09;;;;;;;11.57;3.50;;;;;;;;;;1735527;82;21083;-63
2022/08/26 08:25:36;;;;;;;14.78;3.47;;;;;;;;;;1720515;82;21099;-61
2022/08/26 08:28:03;;;;;;;14.10;3.08;;;;;;;;;;1675346;85;21317;-62
2022/08/26 08:30:30;;;;;;;9.43;2.90;;;;;;;;;;1709810;83;21114;-61
2022/08/26 08:32:57;;;;;;;11.88;3.10;;;;;;;;;;1675624;85;21091;-61
2022/08/26 08:35:25;;;;;;;16.97;3.35;;;;;;;;;;1709733;83;21024;-62
2022/08/26 08:37:55;;;;;;;9.20;3.02;;;;;;;;;;1675575;85;21086;-61
2022/08/26 08:40:24;;;;;;;9.73;2.83;;;;;;;;;;1663973;85;21547;-61
2022/08/26 08:43:06;;;;;;;15.10;2.98;;;;;;;;;;1709800;83;21055;-61
2022/08/26 08:45:42;;;;;;;14.20;2.92;;;;;;;;;;1675312;85;21070;-61
2022/08/26 08:48:19;;;;;;;13.58;2.90;;;;;;;;;;1663244;84;21086;-61
2022/08/26 08:50:52;;;;;;;15.53;3.35;;;;;;;;;;1709712;83;21147;-62
2022/08/26 08:53:36;;;;;;;19.17;3.30;;;;;;;;;;1708742;83;21015;-62
2022/08/26 08:56:13;;;;;;;;;;;;;;;;;;1712210;83;21575;-61
2022/08/26 08:58:59;;;;;;;10.38;3.12;;;;;;;;;;1709619;83;20432;-62
2022/08/26 09:01:29;;;;;;;9.20;2.83;;;;;;;;;;1709926;82;21607;-61
2022/08/26 09:04:12;;;;;;;10.68;2.98;;;;;;;;;;1724739;82;21636;-61
2022/08/26 09:06:39;;;;;;;19.20;3.23;;;;;;;;;;1722952;82;21081;-62
2022/08/26 09:09:07;;;;;;;13.72;3.27;;;;;;;;;;1723957;82;21077;-61
2022/08/26 09:11:34;;;;;;;13.22;3.20;;;;;;;;;;1723886;83;21635;-61
2022/08/26 09:14:02;;;;;;;11.33;3.10;;;;;;;;;;1724556;82;21063;-60
2022/08/26 09:16:42;;;;;;;16.55;3.55;;;;;;;;;;1724535;82;21144;-61
2022/08/26 09:19:13;;;;;;;9.18;3.25;;;;;;;;;;1724346;82;21026;-61
2022/08/26 09:21:40;;;;;;;12.45;3.33;;;;;;;;;;1724321;82;21581;-61
2022/08/26 09:24:07;;;;;;;9.38;3.30;;;;;;;;;;1724426;82;21097;-63
2022/08/26 09:26:44;;;;;;;13.05;3.33;;;;;;;;;;1723548;82;21144;-62
2022/08/26 09:29:19;;;;;;;15.05;3.22;;;;;;;;;;1714279;82;21061;-61
2022/08/26 09:31:45;;;;;;;;;;;;;;;;;;1725869;82;21072;-61
2022/08/26 09:34:23;;;;;;;11.88;3.65;;;;;;;;;;1724727;83;20095;-61
2022/08/26 09:36:52;;;;;;;13.80;3.25;;;;;;;;;;1724182;82;21110;-61
2022/08/26 09:39:43;;;;;;;13.80;3.40;;;;;;;;;;1724036;82;21553;-61
2022/08/26 09:42:14;;;;;;;9.53;3.20;;;;;;;;;;1723700;82;21085;-62
2022/08/26 09:44:58;;;;;;;12.95;3.02;;;;;;;;;;1723358;82;21550;-62
2022/08/26 09:47:40;;;;;;;11.70;3.00;;;;;;;;;;1724150;83;21022;-61
2022/08/26 09:50:10;;;;;;;10.28;3.35;;;;;;;;;;1724597;83;21320;-61
2022/08/26 09:52:37;;;;;;;11.10;3.47;;;;;;;;;;1724174;83;21059;-61
2022/08/26 09:55:13;;;;;;;9.60;3.00;;;;;;;;;;1724874;82;21489;-61
2022/08/26 09:57:52;;;;;;;12.60;3.50;;;;;;;;;;1724703;82;21061;-61
2022/08/26 10:07:12;;;;;;;11.68;3.33;;;;;;;;;;1687488;85;21119;-62
2022/08/26 10:09:41;;;;;;;9.95;3.22;;;;;;;;;;1689212;84;21106;-62
2022/08/26 10:12:14;;;;;;;9.70;3.40;;;;;;;;;;1706426;84;21034;-60
2022/08/26 10:14:49;;;;;;;12.28;3.30;;;;;;;;;;1708796;84;21106;-61
2022/08/26 10:17:35;;;;;;;17.90;4.10;;;;;;;;;;1708675;84;21217;-62
2022/08/26 10:20:11;;;;;;;15.23;3.20;;;;;;;;;;1708292;84;21042;-61
2022/08/26 10:46:38;;;;;;;17.62;3.62;;;;;;;;;;1815413;78;22763;-61
2022/08/26 10:49:12;;;;;;;11.80;3.22;;;;;;;;;;1759068;80;21054;-61
2022/08/26 10:52:05;;;;;;;11.70;3.40;;;;;;;;;;1775560;81;22102;-62
2022/08/26 10:54:38;;;;;;;12.47;3.37;;;;;;;;;;1775515;81;21118;-61
2022/08/26 10:57:13;;;;;;;;;;;;;;;;;;1738930;80;21043;-62
2022/08/26 10:59:49;;;;;;;11.65;3.17;;;;;;;;;;1745322;80;20136;-61
2022/08/26 11:02:25;;;;;;;9.03;3.00;;;;;;;;;;1747342;80;21091;-62
2022/08/26 11:05:01;;;;;;;10.80;2.80;;;;;;;;;;1753873;80;21059;-61
2022/08/26 11:07:45;;;;;;;13.85;3.10;;;;;;;;;;1747982;80;21046;-61
2022/08/26 11:10:22;;;;;;;9.85;3.35;;;;;;;;;;1753669;80;21071;-61
2022/08/26 11:12:55;;;;;;;9.88;3.10;;;;;;;;;;1772190;80;21500;-61
2022/08/26 11:15:28;;;;;;;16.60;3.65;;;;;;;;;;1773058;80;21035;-61
2022/08/26 11:20:04;;;;;;;10.88;3.15;;;;;;;;;;1784234;79;26543;-60
2022/08/26 11:22:34;;;;;;;10.82;3.47;;;;;;;;;;1728360;80;21019;-60
2022/08/26 11:25:05;;;;;;;12.35;3.42;;;;;;;;;;1732806;82;21159;-60
2022/08/26 11:27:38;;;;;;;11.15;3.50;;;;;;;;;;1742207;82;21281;-60
2022/08/26 11:30:15;;;;;;;8.20;3.42;;;;;;;;;;1736039;82;21506;-61
2022/08/26 11:32:50;;;;;;;9.00;3.40;;;;;;;;;;1742174;80;21046;-62
2022/08/26 11:35:24;;;;;;;9.85;3.05;;;;;;;;;;1755765;80;21562;-61
2022/08/26 11:37:56;;;;;;;15.78;3.98;;;;;;;;;;1760882;80;21539;-62
2022/08/26 11:40:29;;;;;;;10.00;3.52;;;;;;;;;;1755173;80;21048;-62
2022/08/26 11:43:20;;;;;;;7.65;3.00;;;;;;;;;;1768028;81;21086;-60
2022/08/26 11:45:50;;;;;;;10.00;3.52;;;;;;;;;;1768843;80;21470;-61
2022/08/26 11:48:29;;;;;;;10.48;3.42;;;;;;;;;;1760239;80;21575;-62
2022/08/26 11:51:02;;;;;;;11.33;4.17;;;;;;;;;;1784642;80;21029;-63
2022/08/26 11:53:31;;;;;;;7.50;3.60;;;;;;;;;;1774028;80;21079;-62
2022/08/26 11:56:01;;;;;;;13.30;3.98;;;;;;;;;;1764405;80;21043;-61
2022/08/26 11:58:28;;;;;;;10.75;3.80;;;;;;;;;;1757897;79;21063;-62
2022/08/26 12:00:58;;;;;;;9.78;3.80;;;;;;;;;;1773800;80;21044;-61
2022/08/26 12:03:40;;;;;;;17.75;4.10;;;;;;;;;;1768818;80;21063;-61
2022/08/26 12:06:13;;;;;;;10.10;3.92;;;;;;;;;;1773070;80;21049;-61
2022/08/26 12:08:42;;;;;;;14.50;3.95;;;;;;;;;;1762840;79;21064;-61
2022/08/26 12:11:13;;;;;;;11.95;3.83;;;;;;;;;;1768465;80;21092;-61
2022/08/26 12:13:41;;;;;;;13.60;4.25;;;;;;;;;;1772421;80;21460;-61
2022/08/26 12:16:08;;;;;;;15.95;5.50;;;;;;;;;;1762595;80;21048;-61
2022/08/26 12:18:37;;;;;;;10.40;3.98;;;;;;;;;;1749413;80;21673;-61
2022/08/26 12:21:16;;;;;;;17.35;4.33;;;;;;;;;;1735165;81;21080;-61
2022/08/26 12:23:48;;;;;;;16.42;4.30;;;;;;;;;;1753720;81;21035;-61
2022/08/26 12:26:21;;;;;;;10.53;4.85;;;;;;;;;;1734327;81;21090;-61
2022/08/26 12:29:00;;;;;;;15.88;4.53;;;;;;;;;;1730807;81;20996;-61
2022/08/26 12:31:30;;;;;;;15.05;4.40;;;;;;;;;;1708843;82;21519;-60
2022/08/26 12:33:58;;;;;;;14.58;4.33;;;;;;;;;;1712520;83;21503;-62
2022/08/26 12:36:32;;;;;;;12.65;4.20;;;;;;;;;;1730136;82;21017;-61
2022/08/26 12:39:08;;;;;;;17.00;4.42;;;;;;;;;;1679519;83;21023;-61
2022/08/26 12:41:45;;;;;;;14.07;4.25;;;;;;;;;;1695845;84;21154;-60
2022/08/26 12:44:36;;;;;;;11.57;3.72;;;;;;;;;;1684983;84;21086;-61
2022/08/26 12:47:36;;;;;;;13.53;4.30;;;;;;;;;;1686474;83;21114;-60
2022/08/26 12:50:23;;;;;;;10.25;4.30;;;;;;;;;;1695484;83;21034;-61
2022/08/26 12:53:12;;;;;;;14.33;4.15;;;;;;;;;;1692625;83;21070;-62
2022/08/26 12:55:48;;;;;;;12.25;3.95;;;;;;;;;;1697512;83;21058;-61
2022/08/26 12:58:19;;;;;;;12.50;3.98;;;;;;;;;;1727498;82;21040;-61
2022/08/26 13:00:48;;;;;;;10.82;4.75;;;;;;;;;;1722410;82;21041;-61
2022/08/26 13:03:37;;;;;;;16.15;4.37;;;;;;;;;;1722438;82;21067;-61
2022/08/26 13:06:13;;;;;;;14.47;4.28;;;;;;;;;;1736211;82;21031;-61
2022/08/26 13:08:46;;;;;;;16.23;4.50;;;;;;;;;;1733940;82;21110;-62
2022/08/26 13:11:17;;;;;;;11.68;4.08;;;;;;;;;;1708544;84;21036;-61
2022/08/26 13:13:53;;;;;;;20.47;4.40;;;;;;;;;;1739112;82;20997;-61
2022/08/26 13:16:22;;;;;;;11.38;3.90;;;;;;;;;;1721771;82;21111;-61
2022/08/26 13:18:51;;;;;;;18.67;3.87;;;;;;;;;;1732429;81;21084;-62
2022/08/26 13:21:24;;;;;;;14.55;3.80;;;;;;;;;;1726742;82;21523;-61
2022/08/26 13:23:51;;;;;;;;;;;;;;;;;;1733410;82;21629;-61
2022/08/26 13:26:18;;;;;;;12.63;3.83;;;;;;;;;;1720254;82;20170;-60
2022/08/26 13:28:45;;;;;;;14.23;4.28;;;;;;;;;;1724029;82;21087;-62
2022/08/26 13:31:14;;;;;;;13.03;4.50;;;;;;;;;;1722150;82;21091;-61
2022/08/26 13:33:43;;;;;;;10.38;3.85;;;;;;;;;;1727734;82;21075;-61
2022/08/26 13:36:10;;;;;;;14.05;4.30;;;;;;;;;;1740577;82;21559;-61
2022/08/26 13:38:37;;;;;;;13.85;4.78;;;;;;;;;;1746458;82;21039;-61
2022/08/26 13:41:04;;;;;;;17.70;4.50;;;;;;;;;;1717134;82;21024;-64
2022/08/26 13:43:32;;;;;;;11.30;3.90;;;;;;;;;;1719258;82;21461;-61
2022/08/26 13:45:59;;;;;;;13.25;4.78;;;;;;;;;;1705772;82;21071;-62
2022/08/26 13:48:26;;;;;;;17.65;4.40;;;;;;;;;;1738882;82;21031;-61
2022/08/26 13:50:54;;;;;;;13.08;4.50;;;;;;;;;;1705416;84;21001;-61
2022/08/26 13:53:22;;;;;;;14.78;4.62;;;;;;;;;;1724629;82;21099;-61
2022/08/26 13:55:49;;;;;;;11.80;4.60;;;;;;;;;;1722884;82;21523;-60
2022/08/26 13:58:16;;;;;;;17.57;8.95;;;;;;;;;;1723066;82;21079;-61
2022/08/26 14:00:43;;;;;;;24.85;13.68;;;;;;;;;;1727269;82;21022;-61
2022/08/26 14:03:10;;;;;;;16.37;5.12;;;;;;;;;;1706337;82;21059;-61
2022/08/26 14:05:36;;;;;;;9.95;5.37;;;;;;;;;;1725378;82;21044;-61
2022/08/26 14:08:03;;;;;;;11.30;5.00;;;;;;;;;;1738614;82;21047;-62
2022/08/26 14:10:32;;;;;;;13.83;5.05;;;;;;;;;;1728963;82;21528;-61
2022/08/26 14:12:59;;;;;;;19.17;9.98;;;;;;;;;;1729528;82;21523;-63
2022/08/26 14:15:26;;;;;;;10.90;5.10;;;;;;;;;;1726930;82;21039;-61
2022/08/26 14:17:54;;;;;;;17.82;4.67;;;;;;;;;;1721002;82;21129;-61
2022/08/26 14:20:27;;;;;;;15.95;4.42;;;;;;;;;;1712538;84;21236;-61
2022/08/26 14:22:54;;;;;;;11.48;5.03;;;;;;;;;;1715988;82;21091;-61
2022/08/26 14:25:21;;;;;;;13.05;4.33;;;;;;;;;;1720828;82;21515;-62
2022/08/26 14:27:49;;;;;;;14.87;4.53;;;;;;;;;;1715071;82;21064;-61
2022/08/26 14:30:17;;;;;;;10.38;3.67;;;;;;;;;;1700162;82;21013;-61
2022/08/26 14:32:49;;;;;;;10.10;3.95;;;;;;;;;;1729278;82;21017;-61
2022/08/26 14:35:19;;;;;;;13.03;4.37;;;;;;;;;;1729791;82;21067;-61
2022/08/26 14:37:46;;;;;;;12.33;3.75;;;;;;;;;;1737465;82;21036;-61
2022/08/26 14:40:13;;;;;;;18.85;4.25;;;;;;;;;;1730385;82;21547;-61
2022/08/26 14:42:41;;;;;;;9.18;4.03;;;;;;;;;;1724666;82;21066;-61
2022/08/26 14:45:12;;;;;;;11.97;3.85;;;;;;;;;;1730020;82;21505;-62
2022/08/26 14:47:38;;;;;;;14.68;4.00;;;;;;;;;;1689371;82;21040;-61
2022/08/26 14:50:05;;;;;;;15.25;4.10;;;;;;;;;;1730598;82;21053;-61
2022/08/26 14:54:10;;;;;;;13.50;4.20;;;;;;;;;;1720131;82;21075;-61
2022/08/26 14:55:01;;;;;;;12.45;4.10;;;;;;;;;;1734236;82;21539;-61
2022/08/26 14:57:28;;;;;;;17.50;4.35;;;;;;;;;;1729949;82;21033;-61
2022/08/26 14:59:55;;;;;;;11.08;5.15;;;;;;;;;;1733233;82;21099;-62
2022/08/26 15:02:23;;;;;;;12.70;4.42;;;;;;;;;;1730159;82;21040;-62
2022/08/26 15:04:50;;;;;;;11.60;4.53;;;;;;;;;;1738416;82;21068;-61
2022/08/26 15:07:17;;;;;;;16.32;4.72;;;;;;;;;;1729446;82;21068;-62
2022/08/26 15:09:44;;;;;;;13.18;4.78;;;;;;;;;;1733859;82;21519;-61
2022/08/26 15:12:12;;;;;;;13.68;4.10;;;;;;;;;;1717901;82;21009;-61
2022/08/26 15:14:38;;;;;;;12.78;4.62;;;;;;;;;;1725672;82;21063;-61
2022/08/26 15:17:06;;;;;;;11.50;5.28;;;;;;;;;;1713687;82;20996;-61
2022/08/26 15:19:32;;;;;;;9.73;4.80;;;;;;;;;;1717101;82;21116;-62
2022/08/26 15:22:00;;;;;;;11.78;4.60;;;;;;;;;;1724790;82;21024;-61
2022/08/26 15:24:29;;;;;;;9.20;4.67;;;;;;;;;;1723986;82;21130;-62
2022/08/26 15:26:57;;;;;;;11.40;4.42;;;;;;;;;;1727001;82;21539;-61
2022/08/26 15:29:24;;;;;;;10.05;4.83;;;;;;;;;;1723724;82;21012;-62